Time;durP1;ratioP1;P1;durP2;ratioP2;P2;SDS_P1;SDS_P2;PMS_P1;PMS_P2;Temp;Humidity;BMP_temperature;BMP_pressure;BME280_temperature;BME280_humidity;BME280_pressure;Samples;Min_cycle;Max_cycle;Signal;HPM_P1;HPM_P2
2022/05/27 00:06:08;;;;;;;38.85;20.75;;;12.50;99.90;;;;;;20957201;28;20117;-53
2022/05/27 00:16:12;;;;;;;41.22;21.15;;;12.80;99.90;;;;;;21069142;28;20102;-58
2022/05/27 00:26:15;;;;;;;48.88;25.55;;;12.70;99.90;;;;;;21055242;28;20043;-58
2022/05/27 00:36:17;;;;;;;33.17;18.88;;;12.60;99.90;;;;;;21027343;28;20044;-58
2022/05/27 00:46:32;;;;;;;30.50;15.18;;;12.60;99.90;;;;;;21051650;28;20036;-52
2022/05/27 00:56:39;;;;;;;26.98;15.57;;;12.50;99.90;;;;;;21071843;28;20035;-58
2022/05/27 01:06:41;;;;;;;35.30;15.98;;;12.20;99.90;;;;;;21065956;28;20105;-58
2022/05/27 01:17:04;;;;;;;26.88;14.90;;;12.00;99.90;;;;;;21051416;28;20459;-58
2022/05/27 01:27:20;;;;;;;28.63;15.30;;;11.90;99.90;;;;;;20917671;28;20168;-58
2022/05/27 01:38:02;;;;;;;36.35;19.38;;;11.60;99.90;;;;;;20971989;28;20067;-58
2022/05/27 01:48:16;;;;;;;29.17;16.42;;;11.70;99.90;;;;;;20916444;28;20076;-58
2022/05/27 01:58:42;;;;;;;36.78;17.58;;;11.60;99.90;;;;;;20915731;28;20379;-51
2022/05/27 02:09:04;;;;;;;25.60;14.88;;;11.80;99.90;;;;;;21017954;28;20063;-52
2022/05/27 02:19:15;;;;;;;28.77;14.77;;;12.10;99.90;;;;;;21052528;28;20039;-58
2022/05/27 02:40:22;;;;;;;22.88;13.88;;;12.40;99.90;;;;;;20919512;28;20105;-59
2022/05/27 02:50:28;;;;;;;28.58;16.33;;;12.40;99.90;;;;;;20946100;28;20114;-52
2022/05/27 03:00:34;;;;;;;28.77;16.92;;;12.10;99.90;;;;;;20941845;28;20044;-58
2022/05/27 03:10:45;;;;;;;27.45;15.55;;;11.80;99.90;;;;;;21041147;28;20512;-59
2022/05/27 03:21:07;;;;;;;24.92;15.93;;;11.60;99.90;;;;;;21044979;28;20036;-58
2022/05/27 03:31:36;;;;;;;31.52;16.60;;;11.60;99.90;;;;;;21052670;28;20032;-52
2022/05/27 03:41:47;;;;;;;20.48;11.10;;;11.60;99.90;;;;;;21058547;28;20097;-58
2022/05/27 03:51:55;;;;;;;19.85;9.60;;;11.80;99.90;;;;;;21060960;28;20044;-58
2022/05/27 04:01:58;;;;;;;15.73;9.32;;;12.10;99.90;;;;;;21059359;28;20032;-51
2022/05/27 04:12:04;;;;;;;17.60;10.25;;;12.00;99.90;;;;;;21058704;28;20028;-58
2022/05/27 04:22:06;;;;;;;18.65;9.25;;;12.00;99.90;;;;;;21058206;28;20036;-52
2022/05/27 04:32:10;;;;;;;19.40;11.13;;;12.00;99.90;;;;;;21065298;28;20036;-58
2022/05/27 04:42:14;;;;;;;20.95;11.93;;;12.20;99.90;;;;;;21025417;28;20090;-58
2022/05/27 04:52:37;;;;;;;24.23;12.30;;;12.40;99.90;;;;;;20992158;28;20033;-57
2022/05/27 05:02:41;;;;;;;18.08;9.75;;;12.80;99.90;;;;;;21017943;28;20106;-58
2022/05/27 05:12:45;;;;;;;17.05;9.50;;;13.20;99.90;;;;;;20987646;28;20067;-52
2022/05/27 05:22:47;;;;;;;17.73;10.13;;;13.40;99.90;;;;;;21017269;28;20036;-52
2022/05/27 05:32:51;;;;;;;18.25;9.70;;;13.70;99.90;;;;;;21041912;28;20117;-53
2022/05/27 05:42:53;;;;;;;19.25;9.75;;;14.20;99.90;;;;;;21068405;28;20124;-57
2022/05/27 05:52:56;;;;;;;17.45;8.23;;;14.90;99.90;;;;;;21027524;28;20036;-54
2022/05/27 06:02:58;;;;;;;16.70;9.82;;;15.60;99.90;;;;;;21012315;28;20161;-58
2022/05/27 06:13:01;;;;;;;14.77;7.30;;;16.40;99.90;;;;;;20991302;28;20032;-59
2022/05/27 06:23:04;;;;;;;15.50;7.43;;;17.70;99.90;;;;;;21008506;28;20086;-59
2022/05/27 06:43:29;;;;;;;14.25;8.10;;;20.50;99.90;;;;;;21035473;28;20044;-59
2022/05/27 06:53:31;;;;;;;13.93;7.28;;;20.90;99.90;;;;;;21042146;28;20036;-56
2022/05/27 07:03:34;;;;;;;12.32;7.78;;;20.90;99.90;;;;;;21038010;28;20036;-59
2022/05/27 07:13:37;;;;;;;13.32;8.70;;;20.50;99.90;;;;;;21032631;28;20031;-55
2022/05/27 07:23:40;;;;;;;12.48;8.73;;;20.00;99.90;;;;;;21028583;28;20039;-55
2022/05/27 07:33:47;;;;;;;12.73;9.20;;;19.50;99.90;;;;;;21036577;28;20089;-60
2022/05/27 07:43:50;;;;;;;12.88;9.70;;;19.70;99.90;;;;;;21068511;28;20495;-60
2022/05/27 07:53:52;;;;;;;15.38;9.60;;;20.20;99.90;;;;;;21039891;28;20094;-60
2022/05/27 08:03:55;;;;;;;15.85;9.52;;;21.10;99.90;;;;;;21052919;28;20070;-60
2022/05/27 08:14:00;;;;;;;14.82;9.88;;;21.50;99.90;;;;;;21031906;28;20089;-57
2022/05/27 08:24:03;;;;;;;18.30;9.98;;;21.60;99.90;;;;;;21043006;28;20045;-60
2022/05/27 08:44:51;;;;;;;19.80;11.55;;;22.90;99.90;;;;;;21070403;28;20634;-61
2022/05/27 08:54:59;;;;;;;16.13;12.07;;;23.20;99.90;;;;;;21073461;28;20036;-61
2022/05/27 09:05:16;;;;;;;15.68;12.20;;;23.50;99.90;;;;;;21061889;28;20065;-57
2022/05/27 09:15:26;;;;;;;18.10;12.27;;;23.50;99.90;;;;;;21051643;28;20036;-62
2022/05/27 09:25:56;;;;;;;18.25;13.50;;;24.40;99.90;;;;;;21057217;28;20044;-57
2022/05/27 09:35:59;;;;;;;20.55;13.00;;;25.60;99.90;;;;;;21064644;28;20069;-63
2022/05/27 09:46:05;;;;;;;20.15;13.85;;;25.80;99.90;;;;;;21058046;28;20044;-58
2022/05/27 09:56:12;;;;;;;13.87;11.00;;;25.30;99.90;;;;;;21071332;28;20069;-63
2022/05/27 10:06:19;;;;;;;15.53;11.87;;;25.20;99.90;;;;;;21060817;28;20032;-60
2022/05/27 10:16:25;;;;;;;18.90;13.63;;;25.50;99.90;;;;;;21072312;28;20040;-65
2022/05/27 10:26:32;;;;;;;23.73;16.38;;;25.80;99.90;;;;;;21048223;28;20040;-57
2022/05/27 10:36:44;;;;;;;23.83;15.80;;;25.50;99.90;;;;;;21049167;28;20125;-65
2022/05/27 10:46:53;;;;;;;23.48;17.10;;;26.60;99.90;;;;;;21061140;28;20378;-63
2022/05/27 11:08:26;;;;;;;24.95;16.48;;;25.90;99.90;;;;;;20621200;28;20132;-63
2022/05/27 11:18:40;;;;;;;19.05;15.95;;;24.60;99.90;;;;;;20679108;28;20581;-63
2022/05/27 11:29:08;;;;;;;17.52;13.63;;;25.60;99.90;;;;;;20695894;28;20566;-62
2022/05/27 11:39:39;;;;;;;22.83;15.10;;;27.40;99.90;;;;;;20773241;28;20052;-65
2022/05/27 11:49:50;;;;;;;24.42;17.92;;;28.10;99.90;;;;;;21054535;28;20103;-66
2022/05/27 12:00:17;;;;;;;24.63;17.05;;;28.80;99.90;;;;;;21048476;28;20036;-65
2022/05/27 12:10:43;;;;;;;30.20;20.30;;;29.00;98.70;;;;;;21075773;28;20093;-66
2022/05/27 12:20:48;;;;;;;24.00;19.98;;;29.10;98.50;;;;;;21050896;28;20086;-67
2022/05/27 12:30:51;;;;;;;27.48;19.85;;;29.20;98.50;;;;;;21061757;28;20036;-66
2022/05/27 12:41:32;;;;;;;22.27;18.27;;;29.60;97.10;;;;;;21058443;28;20048;-59
2022/05/27 12:51:38;;;;;;;29.95;22.02;;;29.60;97.30;;;;;;21045375;28;20555;-57
2022/05/27 13:01:41;;;;;;;27.48;21.63;;;29.30;95.70;;;;;;21072315;28;20404;-64
2022/05/27 13:11:46;;;;;;;30.25;21.67;;;29.00;95.40;;;;;;21062858;28;20036;-62
2022/05/27 13:22:03;;;;;;;33.85;23.55;;;25.90;98.60;;;;;;21056542;28;20104;-64
2022/05/27 13:32:46;;;;;;;26.38;19.17;;;25.20;99.90;;;;;;21053660;28;20036;-66
2022/05/27 13:42:53;;;;;;;23.65;17.67;;;26.10;99.30;;;;;;20809131;28;20049;-65
2022/05/27 13:52:55;;;;;;;27.10;18.73;;;27.40;98.50;;;;;;20793794;28;20463;-66
2022/05/27 14:02:58;;;;;;;27.70;18.25;;;28.20;97.60;;;;;;20805954;28;20470;-66
2022/05/27 14:13:29;;;;;;;22.60;17.25;;;28.30;97.20;;;;;;20841883;28;20117;-65
2022/05/27 14:23:32;;;;;;;26.05;18.08;;;28.00;95.80;;;;;;21048387;28;20044;-65
2022/05/27 14:33:43;;;;;;;23.33;16.83;;;28.20;96.20;;;;;;21064711;28;20048;-64
2022/05/27 14:43:47;;;;;;;25.20;16.08;;;28.60;96.10;;;;;;21062675;28;20573;-57
2022/05/27 14:53:51;;;;;;;24.58;17.13;;;28.90;94.60;;;;;;21051785;28;20101;-57
2022/05/27 15:04:31;;;;;;;23.02;13.23;;;29.10;94.20;;;;;;21049239;28;20040;-64
2022/05/27 15:14:44;;;;;;;22.40;11.68;;;29.60;92.00;;;;;;21043028;28;20044;-58
2022/05/27 15:24:49;;;;;;;10.85;4.50;;;30.10;90.50;;;;;;21069726;28;20040;-63
2022/05/27 15:35:44;;;;;;;20.13;12.55;;;30.00;76.60;;;;;;21051141;28;20044;-62
2022/05/27 15:45:48;;;;;;;;;;;28.90;87.20;;;;;;21041468;28;20047;-63
2022/05/27 15:55:51;;;;;;;24.08;16.25;;;27.20;91.70;;;;;;21057710;28;19912;-62
2022/05/27 16:05:55;;;;;;;29.25;18.95;;;26.30;92.60;;;;;;21043255;28;20085;-57
2022/05/27 16:26:23;;;;;;;26.48;17.42;;;22.70;98.90;;;;;;21054351;28;20032;-59
2022/05/27 16:36:25;;;;;;;25.25;16.63;;;21.50;99.90;;;;;;21061513;28;20052;-60
2022/05/27 16:46:30;;;;;;;24.58;15.57;;;21.20;99.90;;;;;;21094709;28;20052;-59
2022/05/27 16:56:34;;;;;;;32.22;17.13;;;20.40;99.90;;;;;;21090327;28;20488;-54
2022/05/27 17:06:36;;;;;;;30.08;17.77;;;19.60;99.90;;;;;;21081037;28;20089;-59
2022/05/27 17:16:40;;;;;;;30.08;17.55;;;18.90;99.90;;;;;;21092768;28;20035;-59
2022/05/27 17:26:43;;;;;;;33.00;20.35;;;18.40;99.90;;;;;;21072960;28;20065;-58
2022/05/27 17:36:45;;;;;;;26.15;16.33;;;18.10;99.90;;;;;;21073279;28;20044;-54
2022/05/27 17:57:10;;;;;;;31.38;19.83;;;17.60;99.90;;;;;;20996129;28;20052;-59
2022/05/27 18:07:16;;;;;;;30.38;16.42;;;17.20;99.90;;;;;;21001757;28;20036;-54
2022/05/27 18:17:20;;;;;;;29.38;15.30;;;16.90;99.90;;;;;;20997585;28;20032;-59
2022/05/27 18:27:23;;;;;;;29.27;16.52;;;16.70;99.90;;;;;;20981990;28;20040;-59
2022/05/27 18:37:25;;;;;;;27.77;16.63;;;16.50;99.90;;;;;;21019290;28;20056;-59
2022/05/27 18:47:29;;;;;;;27.80;15.38;;;16.20;99.90;;;;;;21006353;28;20040;-58
2022/05/27 18:57:35;;;;;;;25.48;16.35;;;16.00;99.90;;;;;;20977824;28;20035;-54
2022/05/27 19:07:38;;;;;;;32.10;15.88;;;15.70;99.90;;;;;;21062191;28;20549;-58
2022/05/27 19:17:41;;;;;;;29.95;15.60;;;15.60;99.90;;;;;;21021036;28;20040;-58
2022/05/27 19:27:43;;;;;;;24.23;15.43;;;15.50;99.90;;;;;;21017300;28;20044;-54
2022/05/27 19:37:46;;;;;;;25.20;17.15;;;15.50;99.90;;;;;;21033008;28;20048;-59
2022/05/27 19:47:51;;;;;;;23.13;14.25;;;15.50;99.90;;;;;;21057863;28;20036;-59
2022/05/27 20:08:14;;;;;;;22.85;13.35;;;15.50;99.90;;;;;;21051159;28;20477;-58
2022/05/27 20:18:17;;;;;;;34.97;17.05;;;15.40;99.90;;;;;;21053651;28;20093;-58
2022/05/27 20:28:20;;;;;;;30.90;16.63;;;15.30;99.90;;;;;;21065403;28;20177;-58
2022/05/27 20:38:22;;;;;;;30.50;16.85;;;15.10;99.90;;;;;;21050854;28;20045;-58
2022/05/27 20:48:26;;;;;;;30.17;16.77;;;15.00;99.90;;;;;;21027054;28;20082;-58
2022/05/27 20:58:29;;;;;;;30.15;16.67;;;14.90;99.90;;;;;;20988654;28;20056;-54
2022/05/27 21:18:54;;;;;;;31.25;17.70;;;14.80;99.90;;;;;;21055851;28;20114;-58
2022/05/27 21:28:57;;;;;;;34.80;20.20;;;14.90;99.90;;;;;;21012582;28;20442;-53
2022/05/27 21:39:00;;;;;;;39.20;21.30;;;14.80;99.90;;;;;;21062133;28;20056;-58
2022/05/27 21:49:03;;;;;;;37.80;20.98;;;14.60;99.90;;;;;;21001539;28;20094;-58
2022/05/27 21:59:06;;;;;;;40.47;24.27;;;14.40;99.90;;;;;;21016551;28;20036;-50
2022/05/27 22:09:09;;;;;;;42.47;22.95;;;14.10;99.90;;;;;;20996505;28;20045;-59
2022/05/27 22:19:11;;;;;;;57.13;29.85;;;14.00;99.90;;;;;;21045804;28;20090;-58
2022/05/27 22:29:14;;;;;;;48.63;28.92;;;13.80;99.90;;;;;;21001499;28;20558;-57
2022/05/27 22:39:18;;;;;;;49.60;27.35;;;13.80;99.90;;;;;;21060938;28;20452;-59
2022/05/27 22:49:22;;;;;;;44.63;27.15;;;13.80;99.90;;;;;;20888764;28;20138;-58
2022/05/27 22:59:25;;;;;;;41.70;25.60;;;13.80;99.90;;;;;;20928375;28;20044;-50
2022/05/27 23:09:28;;;;;;;43.80;24.90;;;13.80;99.90;;;;;;20870706;28;20045;-58
2022/05/27 23:19:30;;;;;;;48.25;25.38;;;13.60;99.90;;;;;;20886993;28;20567;-58
2022/05/27 23:29:33;;;;;;;49.53;28.15;;;13.60;99.90;;;;;;20995980;28;20035;-52
2022/05/27 23:39:36;;;;;;;45.45;25.85;;;13.50;99.90;;;;;;21056487;28;20412;-58
2022/05/27 23:49:39;;;;;;;43.08;25.92;;;13.40;99.90;;;;;;21081816;28;20048;-57
2022/05/27 23:59:42;;;;;;;37.85;21.20;;;13.30;99.90;;;;;;21069438;28;20088;-58
